Matsuyama Maru No.8 — JD2555 — position and weather

sailwx.info

Track history (hours):
 
Tides and Currents Weather Stations Pressure Air Temp Water Temp Dewpoint Dewpoint Depression Visibility Wind Speed Wind Dir Waves Ship Positions

Matsuyama Maru No.8

Last reported at 2017-Oct-17 00:17 UTC. Time now 2017-Oct-17 05:54 UTC.
Position N 35°33' E 140°00'.

Length 98 m; draft 5.1 m.

Type: Tanker. MMSI: 431000498.

Date/timePositionNaut miles runAvg speedWind from/ knotsBaromVisibWave heightAir tempDewpointWater temp
2017-Oct-17 00:17N 35°33' E 140°00'2 0.8
2017-Oct-16 22:17N 35°32' E 139°59'0 0.0
2017-Oct-16 21:47N 35°32' E 139°59'0 0.0
2017-Oct-16 21:29N 35°32' E 139°59'0 0.0
2017-Oct-16 20:56N 35°32' E 139°59'0 0.0
2017-Oct-16 20:29N 35°32' E 139°59'0 0.0
2017-Oct-16 19:59N 35°32' E 139°59'0 0.0
2017-Oct-16 19:23N 35°32' E 139°59'0 0.0
2017-Oct-16 18:59N 35°32' E 139°59'0 0.0
2017-Oct-16 18:23N 35°32' E 139°59'0 0.0
2017-Oct-16 17:59N 35°32' E 139°59'0 0.0
2017-Oct-16 17:02N 35°32' E 139°59'0 0.1
2017-Oct-16 16:59N 35°32' E 139°59'0 0.0
2017-Oct-16 16:29N 35°32' E 139°59'0 0.0
2017-Oct-16 15:59N 35°32' E 139°59'0 0.0
2017-Oct-16 15:26N 35°32' E 139°59'0 0.0
2017-Oct-16 14:59N 35°32' E 139°59'0 0.0
2017-Oct-16 13:59N 35°32' E 139°59'0 0.0
2017-Oct-16 05:26N 35°32' E 139°59'0 0.0
2017-Oct-16 04:11N 35°32' E 139°59'0 0.0
2017-Oct-16 03:17N 35°32' E 139°59'0 0.0
2017-Oct-16 02:47N 35°32' E 139°59'0 0.0
2017-Oct-16 02:23N 35°32' E 139°59'0 0.0
2017-Oct-16 01:59N 35°32' E 139°59'1 0.0
2017-Oct-15 00:59N 35°32' E 139°59'3 0.1
2017-Oct-13 22:33N 35°32' E 139°55'0 0.1
2017-Oct-13 22:30N 35°32' E 139°55'0 0.0
2017-Oct-13 21:12N 35°32' E 139°55'0 0.0
2017-Oct-13 21:00N 35°32' E 139°55'0 0.0
2017-Oct-13 20:30N 35°32' E 139°55'0 0.1
2017-Oct-13 19:42N 35°32' E 139°55'0 0.0
2017-Oct-13 18:42N 35°32' E 139°55'0 0.2
2017-Oct-13 18:30N 35°32' E 139°55'0 0.0
2017-Oct-13 17:00N 35°32' E 139°55'0 0.0
2017-Oct-13 16:24N 35°32' E 139°55'0 0.0
2017-Oct-13 16:00N 35°32' E 139°55'0 0.0
2017-Oct-13 15:30N 35°32' E 139°55'0 0.0
2017-Oct-13 14:21N 35°32' E 139°55'0 0.1
2017-Oct-13 13:39N 35°32' E 139°55'0 0.1
2017-Oct-13 13:06N 35°32' E 139°55'0 0.0
2017-Oct-13 12:54N 35°32' E 139°55'0 0.0
2017-Oct-13 12:24N 35°32' E 139°55'0 0.0
2017-Oct-13 12:00N 35°32' E 139°55'0 0.0
2017-Oct-13 11:30N 35°32' E 139°55'0 0.0
2017-Oct-13 11:00N 35°32' E 139°55'0 0.0
2017-Oct-13 10:30N 35°32' E 139°55'0 0.0
2017-Oct-13 07:51N 35°32' E 139°55'0 0.0
2017-Oct-13 00:23N 35°32' E 139°55'3 6.3
2017-Oct-12 23:51N 35°30' E 139°52'3 8.9
2017-Oct-12 23:30N 35°30' E 139°48'3 5.9
2017-Oct-12 22:56N 35°30' E 139°44'0 0.0
2017-Oct-12 22:26N 35°30' E 139°44'0 0.0
2017-Oct-12 21:56N 35°30' E 139°44'0 0.0
2017-Oct-12 21:26N 35°30' E 139°44'0 0.0
2017-Oct-12 20:50N 35°30' E 139°44'0 0.0
2017-Oct-12 20:26N 35°30' E 139°44'0 0.0
2017-Oct-12 19:56N 35°30' E 139°44'0 0.0
2017-Oct-12 19:29N 35°30' E 139°44'0 0.0
2017-Oct-12 18:59N 35°30' E 139°44'0 0.0
2017-Oct-12 18:29N 35°30' E 139°44'0 0.0
2017-Oct-12 17:59N 35°30' E 139°44'0 0.0
2017-Oct-12 17:29N 35°30' E 139°44'0 0.0
2017-Oct-12 16:56N 35°30' E 139°44'0 0.0
2017-Oct-12 16:26N 35°30' E 139°44'0 0.0
2017-Oct-12 15:59N 35°30' E 139°44'0 0.0
2017-Oct-12 15:29N 35°30' E 139°44'0 0.0
2017-Oct-12 14:59N 35°30' E 139°44'0 0.0
2017-Oct-12 14:29N 35°30' E 139°44'0 0.0
2017-Oct-12 13:59N 35°30' E 139°44'0 0.0
2017-Oct-12 13:29N 35°30' E 139°44'0 0.0
2017-Oct-12 12:56N 35°30' E 139°44'0 0.0
2017-Oct-12 12:26N 35°30' E 139°44'0 0.0
2017-Oct-12 11:50N 35°30' E 139°44'0 0.0
2017-Oct-12 11:23N 35°30' E 139°44'0 0.0
2017-Oct-12 10:59N 35°30' E 139°44'0 0.0
2017-Oct-12 10:26N 35°30' E 139°44'0 0.0
2017-Oct-12 09:44N 35°30' E 139°44'0 0.0
2017-Oct-12 09:26N 35°30' E 139°44'0 0.0
2017-Oct-12 08:44N 35°30' E 139°44'0 0.0
2017-Oct-12 08:26N 35°30' E 139°44'0 0.0
2017-Oct-12 07:02N 35°30' E 139°44'0 0.0
2017-Oct-12 06:56N 35°30' E 139°44'0 0.0
2017-Oct-12 06:26N 35°30' E 139°44'0 0.0
2017-Oct-12 05:56N 35°30' E 139°44'0 0.0
2017-Oct-12 05:26N 35°30' E 139°44'0 0.0
2017-Oct-12 04:44N 35°30' E 139°44'0 0.0
2017-Oct-12 04:26N 35°30' E 139°44'0 0.0
2017-Oct-12 03:50N 35°30' E 139°44'0 0.0
2017-Oct-12 03:26N 35°30' E 139°44'0 0.0
2017-Oct-12 02:56N 35°30' E 139°44'0 0.0
2017-Oct-12 02:29N 35°30' E 139°44'0 0.0
2017-Oct-12 01:59N 35°30' E 139°44'0 0.0
2017-Oct-12 01:29N 35°30' E 139°44'0 0.0
2017-Oct-11 23:30N 35°30' E 139°44'2 4.1
2017-Oct-11 22:59N 35°28' E 139°42'3 5.6
2017-Oct-11 22:27N 35°27' E 139°46'3 0.1
2017-Oct-10 23:29N 35°30' E 139°47'3 0.2
2017-Oct-10 07:25N 35°30' E 139°44'0 0.0
2017-Oct-10 06:55N 35°30' E 139°44'0 0.0
2017-Oct-10 06:19N 35°30' E 139°44'0 0.0
2017-Oct-10 05:55N 35°30' E 139°44'0 0.0
2017-Oct-10 05:25N 35°30' E 139°44'0 0.0
2017-Oct-10 04:55N 35°30' E 139°44'0 0.0
2017-Oct-10 04:25N 35°30' E 139°44'0 0.0
2017-Oct-10 03:49N 35°30' E 139°44'0 0.0
2017-Oct-10 03:25N 35°30' E 139°44'0 0.0
2017-Oct-10 02:55N 35°30' E 139°44'0 0.0
2017-Oct-10 02:25N 35°30' E 139°44'0 0.0
2017-Oct-10 01:55N 35°30' E 139°44'0 0.0
2017-Oct-10 01:25N 35°30' E 139°44'0 0.0
2017-Oct-10 00:58N 35°30' E 139°44'0 0.0
2017-Oct-10 00:28N 35°30' E 139°44'0 0.0
2017-Oct-09 23:58N 35°30' E 139°44'0 0.0
2017-Oct-09 23:29N 35°30' E 139°44'1 2.9
2017-Oct-09 23:00N 35°29' E 139°42'3 6.4
2017-Oct-09 22:30N 35°26' E 139°45'4 1.2
2017-Oct-09 19:21N 35°23' E 139°45'0 0.0
2017-Oct-09 18:57N 35°23' E 139°45'0 0.0
2017-Oct-09 18:27N 35°23' E 139°45'0 0.0
2017-Oct-09 17:51N 35°23' E 139°45'0 0.1
2017-Oct-09 17:27N 35°23' E 139°45'0 0.1
2017-Oct-09 16:33N 35°23' E 139°45'0 0.1
2017-Oct-09 16:21N 35°23' E 139°45'0 0.0
2017-Oct-09 15:51N 35°23' E 139°45'0 0.0
2017-Oct-09 15:27N 35°23' E 139°45'0 0.0
2017-Oct-09 14:57N 35°23' E 139°45'0 0.0
2017-Oct-09 14:27N 35°23' E 139°45'0 0.0
2017-Oct-09 13:57N 35°23' E 139°45'0 0.0
2017-Oct-09 13:27N 35°23' E 139°45'0 0.1
2017-Oct-09 12:39N 35°23' E 139°45'0 0.1
2017-Oct-09 12:09N 35°23' E 139°45'0 0.0
2017-Oct-09 11:51N 35°23' E 139°45'0 0.0
2017-Oct-09 11:27N 35°23' E 139°45'0 0.0
2017-Oct-09 10:57N 35°23' E 139°45'0 0.0
2017-Oct-09 10:27N 35°23' E 139°45'0 0.0
2017-Oct-09 09:57N 35°23' E 139°45'0 0.0
2017-Oct-09 08:51N 35°23' E 139°45'0 0.0
2017-Oct-09 08:15N 35°23' E 139°45'0 0.0
2017-Oct-09 07:57N 35°23' E 139°45'0 0.0
2017-Oct-09 07:27N 35°23' E 139°45'0 0.1
2017-Oct-09 06:51N 35°23' E 139°45'0 0.0
2017-Oct-09 06:27N 35°23' E 139°45'0 0.0
2017-Oct-09 05:57N 35°23' E 139°45'0 0.0
2017-Oct-09 05:27N 35°23' E 139°45'0 0.0
2017-Oct-09 04:57N 35°23' E 139°45'0 0.0
2017-Oct-09 04:21N 35°23' E 139°45'0 0.0
2017-Oct-09 03:45N 35°23' E 139°45'0 0.0
2017-Oct-08 23:33N 35°23' E 139°45'0 0.1
2017-Oct-08 23:27N 35°23' E 139°45'0 0.0
2017-Oct-08 22:51N 35°23' E 139°45'0 0.0
2017-Oct-08 22:27N 35°23' E 139°45'0 0.1
2017-Oct-08 21:03N 35°23' E 139°45'0 0.2
2017-Oct-08 21:00N 35°23' E 139°45'0 0.1
2017-Oct-08 20:30N 35°23' E 139°45'0 0.0
2017-Oct-08 20:00N 35°23' E 139°45'0 0.0
2017-Oct-08 19:30N 35°23' E 139°45'0 0.0
2017-Oct-08 18:57N 35°23' E 139°45'0 0.0
2017-Oct-08 18:30N 35°23' E 139°45'0 0.1
2017-Oct-08 18:00N 35°23' E 139°45'0 0.0
2017-Oct-08 17:30N 35°23' E 139°45'0 0.1
2017-Oct-08 17:00N 35°23' E 139°45'0 0.0
2017-Oct-08 16:30N 35°23' E 139°45'0 0.1
2017-Oct-08 16:00N 35°23' E 139°45'0 0.0
2017-Oct-08 15:30N 35°23' E 139°45'0 0.1
2017-Oct-08 15:00N 35°23' E 139°45'0 0.1
2017-Oct-08 14:30N 35°23' E 139°45'0 0.1
2017-Oct-08 14:00N 35°23' E 139°45'0 0.0
2017-Oct-08 13:30N 35°23' E 139°45'0 0.0
2017-Oct-08 13:00N 35°23' E 139°45'0 0.0
2017-Oct-08 12:30N 35°23' E 139°45'0 0.0
2017-Oct-08 12:00N 35°23' E 139°45'0 0.0
2017-Oct-08 11:30N 35°23' E 139°45'0 0.1
2017-Oct-08 11:00N 35°23' E 139°45'0 0.1
2017-Oct-08 10:30N 35°23' E 139°45'4 8.1
2017-Oct-08 10:00N 35°26' E 139°47'612.0
2017-Oct-08 09:30N 35°30' E 139°53'610.5
2017-Oct-08 08:56N 35°29' E 140°00'0 0.0
2017-Oct-07 22:43N 35°29' E 140°01'2 5.6
2017-Oct-07 22:22N 35°30' E 139°58'0 0.2
2017-Oct-07 21:41N 35°30' E 139°58'0 0.0
2017-Oct-07 20:20N 35°30' E 139°58'0 0.0
2017-Oct-07 19:56N 35°30' E 139°58'0 0.0
2017-Oct-07 18:32N 35°30' E 139°58'0 0.0
2017-Oct-07 18:17N 35°30' E 139°58'0 0.1
2017-Oct-07 17:44N 35°30' E 139°58'0 0.2
2017-Oct-07 17:29N 35°30' E 139°58'0 0.0
2017-Oct-07 16:14N 35°30' E 139°58'0 0.0
2017-Oct-07 15:50N 35°30' E 139°58'0 0.0
2017-Oct-07 15:29N 35°30' E 139°58'0 0.0
2017-Oct-07 14:59N 35°30' E 139°58'0 0.0
2017-Oct-07 14:29N 35°30' E 139°58'0 0.0
2017-Oct-07 13:59N 35°30' E 139°58'0 0.0
2017-Oct-07 13:29N 35°30' E 139°58'0 0.0
2017-Oct-07 12:56N 35°30' E 139°58'0 0.0
2017-Oct-07 12:26N 35°30' E 139°58'0 0.0
2017-Oct-07 11:50N 35°30' E 139°58'0 0.0
2017-Oct-07 07:56N 35°30' E 139°58'0 0.0
2017-Oct-07 07:23N 35°30' E 139°58'0 0.0
2017-Oct-07 06:53N 35°30' E 139°58'0 0.0
2017-Oct-07 05:59N 35°30' E 139°58'0 0.0
2017-Oct-07 05:29N 35°30' E 139°58'0 0.1
2017-Oct-07 04:47N 35°30' E 139°58'0 0.0
2017-Oct-07 04:29N 35°30' E 139°58'0 0.0
2017-Oct-07 00:59N 35°30' E 139°58'  
Track history (hours):
 
Tides and Currents Weather Stations Pressure Air Temp Water Temp Dewpoint Dewpoint Depression Visibility Wind Speed Wind Dir Waves Ship Positions

Matsuyama Maru No.8

Last reported at 2017-Oct-17 00:17 UTC. Time now 2017-Oct-17 05:54 UTC.
Position N 35°33' E 140°00'.

Length 98 m; draft 5.1 m.

Type: Tanker. MMSI: 431000498.

Date/timePositionNaut miles runAvg speedWind from/ knotsBaromVisibWave heightAir tempDewpointWater temp
2017-Oct-17 00:17N 35°33' E 140°00'2 0.8
2017-Oct-16 22:17N 35°32' E 139°59'0 0.0
2017-Oct-16 21:47N 35°32' E 139°59'0 0.0
2017-Oct-16 21:29N 35°32' E 139°59'0 0.0
2017-Oct-16 20:56N 35°32' E 139°59'0 0.0
2017-Oct-16 20:29N 35°32' E 139°59'0 0.0
2017-Oct-16 19:59N 35°32' E 139°59'0 0.0
2017-Oct-16 19:23N 35°32' E 139°59'0 0.0
2017-Oct-16 18:59N 35°32' E 139°59'0 0.0
2017-Oct-16 18:23N 35°32' E 139°59'0 0.0
2017-Oct-16 17:59N 35°32' E 139°59'0 0.0
2017-Oct-16 17:02N 35°32' E 139°59'0 0.1
2017-Oct-16 16:59N 35°32' E 139°59'0 0.0
2017-Oct-16 16:29N 35°32' E 139°59'0 0.0
2017-Oct-16 15:59N 35°32' E 139°59'0 0.0
2017-Oct-16 15:26N 35°32' E 139°59'0 0.0
2017-Oct-16 14:59N 35°32' E 139°59'0 0.0
2017-Oct-16 13:59N 35°32' E 139°59'0 0.0
2017-Oct-16 05:26N 35°32' E 139°59'0 0.0
2017-Oct-16 04:11N 35°32' E 139°59'0 0.0
2017-Oct-16 03:17N 35°32' E 139°59'0 0.0
2017-Oct-16 02:47N 35°32' E 139°59'0 0.0
2017-Oct-16 02:23N 35°32' E 139°59'0 0.0
2017-Oct-16 01:59N 35°32' E 139°59'1 0.0
2017-Oct-15 00:59N 35°32' E 139°59'3 0.1
2017-Oct-13 22:33N 35°32' E 139°55'0 0.1
2017-Oct-13 22:30N 35°32' E 139°55'0 0.0
2017-Oct-13 21:12N 35°32' E 139°55'0 0.0
2017-Oct-13 21:00N 35°32' E 139°55'0 0.0
2017-Oct-13 20:30N 35°32' E 139°55'0 0.1
2017-Oct-13 19:42N 35°32' E 139°55'0 0.0
2017-Oct-13 18:42N 35°32' E 139°55'0 0.2
2017-Oct-13 18:30N 35°32' E 139°55'0 0.0
2017-Oct-13 17:00N 35°32' E 139°55'0 0.0
2017-Oct-13 16:24N 35°32' E 139°55'0 0.0
2017-Oct-13 16:00N 35°32' E 139°55'0 0.0
2017-Oct-13 15:30N 35°32' E 139°55'0 0.0
2017-Oct-13 14:21N 35°32' E 139°55'0 0.1
2017-Oct-13 13:39N 35°32' E 139°55'0 0.1
2017-Oct-13 13:06N 35°32' E 139°55'0 0.0
2017-Oct-13 12:54N 35°32' E 139°55'0 0.0
2017-Oct-13 12:24N 35°32' E 139°55'0 0.0
2017-Oct-13 12:00N 35°32' E 139°55'0 0.0
2017-Oct-13 11:30N 35°32' E 139°55'0 0.0
2017-Oct-13 11:00N 35°32' E 139°55'0 0.0
2017-Oct-13 10:30N 35°32' E 139°55'0 0.0
2017-Oct-13 07:51N 35°32' E 139°55'0 0.0
2017-Oct-13 00:23N 35°32' E 139°55'3 6.3
2017-Oct-12 23:51N 35°30' E 139°52'3 8.9
2017-Oct-12 23:30N 35°30' E 139°48'3 5.9
2017-Oct-12 22:56N 35°30' E 139°44'0 0.0
2017-Oct-12 22:26N 35°30' E 139°44'0 0.0
2017-Oct-12 21:56N 35°30' E 139°44'0 0.0
2017-Oct-12 21:26N 35°30' E 139°44'0 0.0
2017-Oct-12 20:50N 35°30' E 139°44'0 0.0
2017-Oct-12 20:26N 35°30' E 139°44'0 0.0
2017-Oct-12 19:56N 35°30' E 139°44'0 0.0
2017-Oct-12 19:29N 35°30' E 139°44'0 0.0
2017-Oct-12 18:59N 35°30' E 139°44'0 0.0
2017-Oct-12 18:29N 35°30' E 139°44'0 0.0
2017-Oct-12 17:59N 35°30' E 139°44'0 0.0
2017-Oct-12 17:29N 35°30' E 139°44'0 0.0
2017-Oct-12 16:56N 35°30' E 139°44'0 0.0
2017-Oct-12 16:26N 35°30' E 139°44'0 0.0
2017-Oct-12 15:59N 35°30' E 139°44'0 0.0
2017-Oct-12 15:29N 35°30' E 139°44'0 0.0
2017-Oct-12 14:59N 35°30' E 139°44'0 0.0
2017-Oct-12 14:29N 35°30' E 139°44'0 0.0
2017-Oct-12 13:59N 35°30' E 139°44'0 0.0
2017-Oct-12 13:29N 35°30' E 139°44'0 0.0
2017-Oct-12 12:56N 35°30' E 139°44'0 0.0
2017-Oct-12 12:26N 35°30' E 139°44'0 0.0
2017-Oct-12 11:50N 35°30' E 139°44'0 0.0
2017-Oct-12 11:23N 35°30' E 139°44'0 0.0
2017-Oct-12 10:59N 35°30' E 139°44'0 0.0
2017-Oct-12 10:26N 35°30' E 139°44'0 0.0
2017-Oct-12 09:44N 35°30' E 139°44'0 0.0
2017-Oct-12 09:26N 35°30' E 139°44'0 0.0
2017-Oct-12 08:44N 35°30' E 139°44'0 0.0
2017-Oct-12 08:26N 35°30' E 139°44'0 0.0
2017-Oct-12 07:02N 35°30' E 139°44'0 0.0
2017-Oct-12 06:56N 35°30' E 139°44'0 0.0
2017-Oct-12 06:26N 35°30' E 139°44'0 0.0
2017-Oct-12 05:56N 35°30' E 139°44'0 0.0
2017-Oct-12 05:26N 35°30' E 139°44'0 0.0
2017-Oct-12 04:44N 35°30' E 139°44'0 0.0
2017-Oct-12 04:26N 35°30' E 139°44'0 0.0
2017-Oct-12 03:50N 35°30' E 139°44'0 0.0
2017-Oct-12 03:26N 35°30' E 139°44'0 0.0
2017-Oct-12 02:56N 35°30' E 139°44'0 0.0
2017-Oct-12 02:29N 35°30' E 139°44'0 0.0
2017-Oct-12 01:59N 35°30' E 139°44'0 0.0
2017-Oct-12 01:29N 35°30' E 139°44'0 0.0
2017-Oct-11 23:30N 35°30' E 139°44'2 4.1
2017-Oct-11 22:59N 35°28' E 139°42'3 5.6
2017-Oct-11 22:27N 35°27' E 139°46'3 0.1
2017-Oct-10 23:29N 35°30' E 139°47'3 0.2
2017-Oct-10 07:25N 35°30' E 139°44'0 0.0
2017-Oct-10 06:55N 35°30' E 139°44'0 0.0
2017-Oct-10 06:19N 35°30' E 139°44'0 0.0
2017-Oct-10 05:55N 35°30' E 139°44'0 0.0
2017-Oct-10 05:25N 35°30' E 139°44'0 0.0
2017-Oct-10 04:55N 35°30' E 139°44'0 0.0
2017-Oct-10 04:25N 35°30' E 139°44'0 0.0
2017-Oct-10 03:49N 35°30' E 139°44'0 0.0
2017-Oct-10 03:25N 35°30' E 139°44'0 0.0
2017-Oct-10 02:55N 35°30' E 139°44'0 0.0
2017-Oct-10 02:25N 35°30' E 139°44'0 0.0
2017-Oct-10 01:55N 35°30' E 139°44'0 0.0
2017-Oct-10 01:25N 35°30' E 139°44'0 0.0
2017-Oct-10 00:58N 35°30' E 139°44'0 0.0
2017-Oct-10 00:28N 35°30' E 139°44'0 0.0
2017-Oct-09 23:58N 35°30' E 139°44'0 0.0
2017-Oct-09 23:29N 35°30' E 139°44'1 2.9
2017-Oct-09 23:00N 35°29' E 139°42'3 6.4
2017-Oct-09 22:30N 35°26' E 139°45'4 1.2
2017-Oct-09 19:21N 35°23' E 139°45'0 0.0
2017-Oct-09 18:57N 35°23' E 139°45'0 0.0
2017-Oct-09 18:27N 35°23' E 139°45'0 0.0
2017-Oct-09 17:51N 35°23' E 139°45'0 0.1
2017-Oct-09 17:27N 35°23' E 139°45'0 0.1
2017-Oct-09 16:33N 35°23' E 139°45'0 0.1
2017-Oct-09 16:21N 35°23' E 139°45'0 0.0
2017-Oct-09 15:51N 35°23' E 139°45'0 0.0
2017-Oct-09 15:27N 35°23' E 139°45'0 0.0
2017-Oct-09 14:57N 35°23' E 139°45'0 0.0
2017-Oct-09 14:27N 35°23' E 139°45'0 0.0
2017-Oct-09 13:57N 35°23' E 139°45'0 0.0
2017-Oct-09 13:27N 35°23' E 139°45'0 0.1
2017-Oct-09 12:39N 35°23' E 139°45'0 0.1
2017-Oct-09 12:09N 35°23' E 139°45'0 0.0
2017-Oct-09 11:51N 35°23' E 139°45'0 0.0
2017-Oct-09 11:27N 35°23' E 139°45'0 0.0
2017-Oct-09 10:57N 35°23' E 139°45'0 0.0
2017-Oct-09 10:27N 35°23' E 139°45'0 0.0
2017-Oct-09 09:57N 35°23' E 139°45'0 0.0
2017-Oct-09 08:51N 35°23' E 139°45'0 0.0
2017-Oct-09 08:15N 35°23' E 139°45'0 0.0
2017-Oct-09 07:57N 35°23' E 139°45'0 0.0
2017-Oct-09 07:27N 35°23' E 139°45'0 0.1
2017-Oct-09 06:51N 35°23' E 139°45'0 0.0
2017-Oct-09 06:27N 35°23' E 139°45'0 0.0
2017-Oct-09 05:57N 35°23' E 139°45'0 0.0
2017-Oct-09 05:27N 35°23' E 139°45'0 0.0
2017-Oct-09 04:57N 35°23' E 139°45'0 0.0
2017-Oct-09 04:21N 35°23' E 139°45'0 0.0
2017-Oct-09 03:45N 35°23' E 139°45'0 0.0
2017-Oct-08 23:33N 35°23' E 139°45'0 0.1
2017-Oct-08 23:27N 35°23' E 139°45'0 0.0
2017-Oct-08 22:51N 35°23' E 139°45'0 0.0
2017-Oct-08 22:27N 35°23' E 139°45'0 0.1
2017-Oct-08 21:03N 35°23' E 139°45'0 0.2
2017-Oct-08 21:00N 35°23' E 139°45'0 0.1
2017-Oct-08 20:30N 35°23' E 139°45'0 0.0
2017-Oct-08 20:00N 35°23' E 139°45'0 0.0
2017-Oct-08 19:30N 35°23' E 139°45'0 0.0
2017-Oct-08 18:57N 35°23' E 139°45'0 0.0
2017-Oct-08 18:30N 35°23' E 139°45'0 0.1
2017-Oct-08 18:00N 35°23' E 139°45'0 0.0
2017-Oct-08 17:30N 35°23' E 139°45'0 0.1
2017-Oct-08 17:00N 35°23' E 139°45'0 0.0
2017-Oct-08 16:30N 35°23' E 139°45'0 0.1
2017-Oct-08 16:00N 35°23' E 139°45'0 0.0
2017-Oct-08 15:30N 35°23' E 139°45'0 0.1
2017-Oct-08 15:00N 35°23' E 139°45'0 0.1
2017-Oct-08 14:30N 35°23' E 139°45'0 0.1
2017-Oct-08 14:00N 35°23' E 139°45'0 0.0
2017-Oct-08 13:30N 35°23' E 139°45'0 0.0
2017-Oct-08 13:00N 35°23' E 139°45'0 0.0
2017-Oct-08 12:30N 35°23' E 139°45'0 0.0
2017-Oct-08 12:00N 35°23' E 139°45'0 0.0
2017-Oct-08 11:30N 35°23' E 139°45'0 0.1
2017-Oct-08 11:00N 35°23' E 139°45'0 0.1
2017-Oct-08 10:30N 35°23' E 139°45'4 8.1
2017-Oct-08 10:00N 35°26' E 139°47'612.0
2017-Oct-08 09:30N 35°30' E 139°53'610.5
2017-Oct-08 08:56N 35°29' E 140°00'0 0.0
2017-Oct-07 22:43N 35°29' E 140°01'2 5.6
2017-Oct-07 22:22N 35°30' E 139°58'0 0.2
2017-Oct-07 21:41N 35°30' E 139°58'0 0.0
2017-Oct-07 20:20N 35°30' E 139°58'0 0.0
2017-Oct-07 19:56N 35°30' E 139°58'0 0.0
2017-Oct-07 18:32N 35°30' E 139°58'0 0.0
2017-Oct-07 18:17N 35°30' E 139°58'0 0.1
2017-Oct-07 17:44N 35°30' E 139°58'0 0.2
2017-Oct-07 17:29N 35°30' E 139°58'0 0.0
2017-Oct-07 16:14N 35°30' E 139°58'0 0.0
2017-Oct-07 15:50N 35°30' E 139°58'0 0.0
2017-Oct-07 15:29N 35°30' E 139°58'0 0.0
2017-Oct-07 14:59N 35°30' E 139°58'0 0.0
2017-Oct-07 14:29N 35°30' E 139°58'0 0.0
2017-Oct-07 13:59N 35°30' E 139°58'0 0.0
2017-Oct-07 13:29N 35°30' E 139°58'0 0.0
2017-Oct-07 12:56N 35°30' E 139°58'0 0.0
2017-Oct-07 12:26N 35°30' E 139°58'0 0.0
2017-Oct-07 11:50N 35°30' E 139°58'0 0.0
2017-Oct-07 07:56N 35°30' E 139°58'0 0.0
2017-Oct-07 07:23N 35°30' E 139°58'0 0.0
2017-Oct-07 06:53N 35°30' E 139°58'0 0.0
2017-Oct-07 05:59N 35°30' E 139°58'0 0.0
2017-Oct-07 05:29N 35°30' E 139°58'0 0.1
2017-Oct-07 04:47N 35°30' E 139°58'0 0.0
2017-Oct-07 04:29N 35°30' E 139°58'0 0.0
2017-Oct-07 00:59N 35°30' E 139°58'  

Dump ship's entire track history